Time;durP1;ratioP1;P1;durP2;ratioP2;P2;SDS_P1;SDS_P2;PMS_P1;PMS_P2;Temp;Humidity;BMP_temperature;BMP_pressure;BME280_temperature;BME280_humidity;BME280_pressure;Samples;Min_cycle;Max_cycle;Signal;HPM_P1;HPM_P2
2023/06/11 00:01:08;;;;;;;11.25;4.40;;;21.30;58.90;;;;;;5021924;28;20105;-69
2023/06/11 00:03:35;;;;;;;6.32;4.35;;;21.30;59.20;;;;;;5026901;28;20033;-69
2023/06/11 00:06:01;;;;;;;5.65;3.42;;;21.20;59.60;;;;;;5020341;28;20049;-69
2023/06/11 00:08:27;;;;;;;6.20;4.10;;;21.20;59.50;;;;;;5009616;28;20034;-69
2023/06/11 00:10:52;;;;;;;9.05;4.30;;;21.10;60.00;;;;;;5020550;28;20615;-67
2023/06/11 00:13:18;;;;;;;7.53;4.38;;;21.10;59.90;;;;;;5045227;28;20037;-67
2023/06/11 00:15:44;;;;;;;7.00;3.55;;;21.10;59.80;;;;;;5025910;28;20112;-67
2023/06/11 00:18:10;;;;;;;6.97;4.18;;;21.00;60.60;;;;;;5023398;28;20041;-67
2023/06/11 00:20:40;;;;;;;9.98;4.95;;;21.00;60.60;;;;;;5021729;28;20128;-67
2023/06/11 00:23:06;;;;;;;5.28;4.43;;;20.90;61.50;;;;;;5019218;28;20508;-67
2023/06/11 00:25:32;;;;;;;8.90;5.50;;;20.80;61.30;;;;;;5003015;28;20056;-68
2023/06/11 00:27:58;;;;;;;6.93;4.45;;;20.70;62.00;;;;;;5007814;28;20095;-68
2023/06/11 00:30:24;;;;;;;10.40;5.93;;;20.60;62.40;;;;;;5023611;28;20049;-68
2023/06/11 00:32:50;;;;;;;10.93;5.88;;;20.60;62.70;;;;;;5038166;28;20047;-69
2023/06/11 00:35:16;;;;;;;10.35;6.32;;;20.50;63.00;;;;;;5023417;28;20054;-69
2023/06/11 00:37:42;;;;;;;12.10;6.55;;;20.40;63.20;;;;;;5022696;28;20042;-69
2023/06/11 00:40:09;;;;;;;9.30;6.38;;;20.40;63.50;;;;;;5018573;28;20536;-69
2023/06/11 00:42:35;;;;;;;9.57;5.88;;;20.30;63.80;;;;;;5020211;28;20096;-69
2023/06/11 00:45:03;;;;;;;11.35;6.43;;;20.20;64.20;;;;;;5024016;28;20148;-69
2023/06/11 00:47:29;;;;;;;8.93;6.28;;;20.10;64.60;;;;;;5025040;28;20042;-69
2023/06/11 00:49:56;;;;;;;9.07;6.60;;;20.00;64.90;;;;;;5021115;28;20038;-69
2023/06/11 00:52:22;;;;;;;11.85;6.85;;;19.90;65.30;;;;;;5021006;28;20054;-69
2023/06/11 00:54:48;;;;;;;11.45;6.68;;;19.80;65.60;;;;;;5024233;28;20120;-69
2023/06/11 00:57:17;;;;;;;13.50;7.03;;;19.70;65.90;;;;;;5017975;28;20120;-69
2023/06/11 00:59:48;;;;;;;10.52;6.93;;;19.60;66.20;;;;;;5020141;28;20488;-69
2023/06/11 01:02:21;;;;;;;9.38;6.93;;;19.50;66.30;;;;;;5018026;28;20508;-69
2023/06/11 01:04:51;;;;;;;7.80;6.13;;;19.40;66.30;;;;;;5021369;28;20038;-69
2023/06/11 01:07:18;;;;;;;8.55;7.00;;;19.40;66.20;;;;;;5019161;28;20044;-69
2023/06/11 01:09:45;;;;;;;10.00;7.30;;;19.30;66.00;;;;;;5024428;28;20042;-69
2023/06/11 01:12:12;;;;;;;9.68;6.72;;;19.30;65.80;;;;;;5022345;28;20061;-69
2023/06/11 01:14:38;;;;;;;9.07;7.03;;;19.30;65.60;;;;;;5025136;28;20378;-69
2023/06/11 01:17:15;;;;;;;8.70;7.00;;;19.20;65.40;;;;;;5022086;28;20106;-69
2023/06/11 01:19:55;;;;;;;9.05;7.25;;;19.20;65.20;;;;;;5021070;28;20052;-69
2023/06/11 01:22:38;;;;;;;10.02;7.50;;;19.20;65.10;;;;;;5020872;28;20049;-69
2023/06/11 01:25:20;;;;;;;7.30;6.32;;;19.20;64.90;;;;;;5023828;28;20131;-68
2023/06/11 01:27:56;;;;;;;11.18;7.45;;;19.20;64.70;;;;;;5022890;28;20056;-68
2023/06/11 01:30:23;;;;;;;9.57;7.28;;;19.20;64.60;;;;;;5019084;28;20123;-68
2023/06/11 01:32:58;;;;;;;8.93;7.70;;;19.10;64.50;;;;;;5016868;28;20073;-69
2023/06/11 01:35:24;;;;;;;10.23;7.50;;;19.20;64.40;;;;;;5019497;28;20061;-69
2023/06/11 01:37:55;;;;;;;10.25;7.97;;;19.10;64.20;;;;;;5026610;28;20052;-69
2023/06/11 01:40:27;;;;;;;8.85;7.57;;;19.10;64.10;;;;;;5019955;28;20504;-69
2023/06/11 01:42:54;;;;;;;8.10;7.30;;;19.10;63.90;;;;;;5008062;28;20034;-69
2023/06/11 01:45:21;;;;;;;8.30;7.50;;;19.10;63.70;;;;;;5022154;28;20056;-69
2023/06/11 01:47:48;;;;;;;11.35;8.07;;;19.10;63.40;;;;;;5018231;28;20046;-69
2023/06/11 01:50:15;;;;;;;10.93;7.47;;;19.10;63.10;;;;;;5024752;28;20474;-69
2023/06/11 01:52:41;;;;;;;9.20;7.65;;;19.10;62.90;;;;;;5020373;28;20050;-69
2023/06/11 01:55:08;;;;;;;8.68;7.20;;;19.10;62.70;;;;;;5021281;28;20046;-69
2023/06/11 01:57:34;;;;;;;7.82;7.03;;;19.10;62.60;;;;;;5024907;28;20048;-69
2023/06/11 02:00:01;;;;;;;8.82;7.25;;;19.10;62.50;;;;;;5005145;28;20045;-69
2023/06/11 02:02:27;;;;;;;10.65;8.15;;;19.10;62.50;;;;;;5017734;28;20117;-69
2023/06/11 02:04:53;;;;;;;9.90;7.63;;;19.10;62.40;;;;;;5024695;28;20124;-69
2023/06/11 02:07:19;;;;;;;8.85;7.95;;;19.10;62.30;;;;;;5015964;28;20125;-69
2023/06/11 02:09:45;;;;;;;8.80;7.90;;;19.10;62.20;;;;;;5021271;28;20489;-69
2023/06/11 02:12:11;;;;;;;8.32;6.93;;;19.10;62.20;;;;;;5021434;28;20110;-69
2023/06/11 02:14:37;;;;;;;8.73;7.53;;;19.10;62.10;;;;;;5020483;28;20030;-69
2023/06/11 02:17:02;;;;;;;9.18;7.47;;;19.10;62.00;;;;;;5021398;28;20048;-69
2023/06/11 02:19:28;;;;;;;9.80;7.65;;;19.10;62.00;;;;;;5017227;28;20080;-69
2023/06/11 02:21:54;;;;;;;9.10;7.97;;;19.10;61.90;;;;;;5039261;28;20041;-69
2023/06/11 02:24:19;;;;;;;10.38;7.53;;;19.10;61.90;;;;;;5021753;28;20033;-69
2023/06/11 02:26:45;;;;;;;8.15;7.35;;;19.10;61.80;;;;;;5021347;28;20041;-69
2023/06/11 02:29:11;;;;;;;8.68;7.40;;;19.10;61.90;;;;;;5018695;28;20045;-69
2023/06/11 02:31:36;;;;;;;9.35;7.72;;;19.10;61.80;;;;;;5021747;28;20041;-69
2023/06/11 02:34:02;;;;;;;8.95;7.07;;;19.10;61.70;;;;;;5022459;28;20057;-69
2023/06/11 02:36:28;;;;;;;8.57;7.75;;;19.00;61.70;;;;;;5021414;28;20132;-69
2023/06/11 02:38:53;;;;;;;8.23;7.32;;;19.00;61.80;;;;;;5019810;28;20500;-69
2023/06/11 02:41:19;;;;;;;8.48;7.60;;;19.00;61.80;;;;;;5015347;28;20098;-69
2023/06/11 02:43:45;;;;;;;9.30;7.00;;;19.00;61.90;;;;;;5021742;28;20042;-69
2023/06/11 02:46:10;;;;;;;8.57;7.72;;;19.00;61.90;;;;;;5022332;28;20125;-69
2023/06/11 02:48:36;;;;;;;8.38;7.50;;;19.00;62.00;;;;;;5016284;28;20397;-69
2023/06/11 02:51:02;;;;;;;9.35;8.30;;;18.90;61.90;;;;;;5024216;28;20037;-69
2023/06/11 02:53:27;;;;;;;11.98;8.52;;;18.90;62.00;;;;;;5023496;28;20080;-67
2023/06/11 02:55:53;;;;;;;9.27;8.18;;;18.90;62.00;;;;;;5015436;28;20053;-67
2023/06/11 02:58:19;;;;;;;9.73;7.72;;;18.90;62.10;;;;;;5023810;28;20415;-67
2023/06/11 03:00:44;;;;;;;11.77;8.02;;;18.90;62.10;;;;;;5019227;28;20041;-67
2023/06/11 03:03:10;;;;;;;9.40;7.97;;;18.90;62.10;;;;;;5017341;28;20397;-67
2023/06/11 03:05:36;;;;;;;8.98;8.07;;;18.90;62.20;;;;;;5021317;28;20041;-67
2023/06/11 03:08:01;;;;;;;10.20;8.18;;;18.90;62.20;;;;;;5020663;28;20041;-68
2023/06/11 03:10:28;;;;;;;10.07;8.68;;;18.80;62.20;;;;;;5019223;28;20171;-68
2023/06/11 03:12:56;;;;;;;10.20;9.18;;;18.80;62.20;;;;;;5018885;28;20396;-68
2023/06/11 03:15:22;;;;;;;11.02;8.85;;;18.80;62.30;;;;;;5017804;28;20041;-68
2023/06/11 03:17:48;;;;;;;10.50;9.40;;;18.80;62.30;;;;;;5020734;28;20478;-68
2023/06/11 03:20:14;;;;;;;11.25;9.02;;;18.80;62.40;;;;;;5017644;28;20060;-68
2023/06/11 03:22:39;;;;;;;9.43;8.52;;;18.70;62.40;;;;;;5020099;28;20197;-68
2023/06/11 03:25:05;;;;;;;10.02;8.48;;;18.70;62.50;;;;;;5005115;28;20488;-69
2023/06/11 03:27:31;;;;;;;9.52;8.57;;;18.70;62.50;;;;;;5038295;28;20049;-69
2023/06/11 03:29:57;;;;;;;13.95;9.40;;;18.70;62.50;;;;;;5018128;28;20048;-69
2023/06/11 03:32:23;;;;;;;9.00;8.10;;;18.70;62.50;;;;;;5021028;28;20048;-69
2023/06/11 03:34:52;;;;;;;9.07;8.18;;;18.70;62.50;;;;;;5018117;28;20060;-69
2023/06/11 03:37:18;;;;;;;9.50;8.50;;;18.70;62.50;;;;;;5013354;28;20049;-68
2023/06/11 03:39:44;;;;;;;8.82;7.93;;;18.70;62.50;;;;;;5022679;28;20062;-68
2023/06/11 03:42:10;;;;;;;9.35;8.35;;;18.70;62.50;;;;;;5020659;28;20573;-69
2023/06/11 03:44:36;;;;;;;11.07;8.93;;;18.70;62.70;;;;;;5022078;28;20034;-69
2023/06/11 03:47:02;;;;;;;9.38;8.48;;;18.70;62.80;;;;;;5022278;28;20044;-69
2023/06/11 03:49:28;;;;;;;10.00;8.95;;;18.60;62.80;;;;;;5020856;28;20030;-69
2023/06/11 03:51:55;;;;;;;11.77;8.52;;;18.60;62.80;;;;;;5022590;28;20033;-69
2023/06/11 03:54:20;;;;;;;10.75;9.20;;;18.60;62.80;;;;;;5036771;28;20038;-69
2023/06/11 03:56:46;;;;;;;8.50;7.63;;;18.60;62.90;;;;;;5014892;28;20046;-69
2023/06/11 03:59:12;;;;;;;9.93;8.82;;;18.60;62.80;;;;;;5022514;28;20042;-69
2023/06/11 04:01:38;;;;;;;10.50;9.05;;;18.60;63.00;;;;;;5006567;28;20041;-69
2023/06/11 04:04:04;;;;;;;8.40;7.60;;;18.60;63.00;;;;;;5022697;28;20036;-69
2023/06/11 04:06:35;;;;;;;11.30;8.82;;;18.60;63.10;;;;;;5026541;28;20045;-69
2023/06/11 04:09:01;;;;;;;9.30;8.15;;;18.60;63.20;;;;;;5022576;28;20136;-69
2023/06/11 04:11:26;;;;;;;11.18;8.27;;;18.50;63.20;;;;;;5020102;28;20125;-69
2023/06/11 04:13:52;;;;;;;11.57;9.00;;;18.50;63.30;;;;;;5009454;28;20037;-69
2023/06/11 04:16:18;;;;;;;10.43;9.02;;;18.60;63.50;;;;;;5022469;28;20440;-69
2023/06/11 04:18:44;;;;;;;11.52;9.27;;;18.60;63.50;;;;;;5003192;28;20129;-69
2023/06/11 04:21:09;;;;;;;11.77;9.95;;;18.60;63.50;;;;;;5020199;28;20041;-69
2023/06/11 04:23:36;;;;;;;9.70;8.70;;;18.60;63.50;;;;;;5021370;28;20052;-69
2023/06/11 04:26:02;;;;;;;10.63;9.07;;;18.60;63.50;;;;;;5024798;28;20042;-69
2023/06/11 04:28:28;;;;;;;9.75;8.88;;;18.60;63.50;;;;;;5019849;28;20553;-69
2023/06/11 04:30:57;;;;;;;9.70;8.80;;;18.60;63.50;;;;;;5023833;28;20068;-69
2023/06/11 04:33:32;;;;;;;8.95;7.80;;;18.60;63.50;;;;;;5024082;28;20033;-69
2023/06/11 04:36:01;;;;;;;9.40;8.38;;;18.60;63.60;;;;;;5026274;28;20053;-69
2023/06/11 04:38:31;;;;;;;9.88;8.63;;;18.70;63.80;;;;;;5015958;28;20045;-68
2023/06/11 04:40:57;;;;;;;9.45;8.55;;;18.70;63.60;;;;;;5025195;28;20052;-68
2023/06/11 04:43:24;;;;;;;9.85;8.75;;;18.70;63.50;;;;;;5022581;28;20052;-68
2023/06/11 04:45:55;;;;;;;11.00;9.80;;;18.70;63.40;;;;;;5026087;28;20034;-68
2023/06/11 04:48:27;;;;;;;9.40;7.88;;;18.80;63.50;;;;;;5024191;28;20041;-68
2023/06/11 04:50:54;;;;;;;9.90;8.57;;;18.80;63.30;;;;;;5023821;28;20496;-68
2023/06/11 04:53:24;;;;;;;10.55;9.05;;;18.80;63.20;;;;;;5022008;28;20048;-68
2023/06/11 04:55:56;;;;;;;8.02;7.15;;;18.90;63.40;;;;;;5020498;28;20051;-68
2023/06/11 04:58:25;;;;;;;10.50;8.80;;;18.90;63.40;;;;;;5019022;28;20065;-68
2023/06/11 05:00:56;;;;;;;9.43;8.45;;;18.90;63.50;;;;;;5028571;28;20049;-68
2023/06/11 05:03:21;;;;;;;9.98;8.98;;;19.00;63.80;;;;;;5020376;28;20034;-68
2023/06/11 05:05:51;;;;;;;9.27;8.38;;;19.00;63.60;;;;;;5041542;28;20033;-68
2023/06/11 05:08:18;;;;;;;9.93;8.93;;;19.10;63.60;;;;;;5023190;28;20156;-68
2023/06/11 05:10:44;;;;;;;10.10;9.10;;;19.10;63.80;;;;;;5025908;28;20508;-68
2023/06/11 05:13:13;;;;;;;10.90;9.07;;;19.20;63.80;;;;;;5022513;28;20069;-69
2023/06/11 05:15:40;;;;;;;10.02;9.02;;;19.30;64.10;;;;;;5024383;28;20481;-69
2023/06/11 05:18:06;;;;;;;9.52;8.63;;;19.50;63.00;;;;;;5021858;28;20492;-68
2023/06/11 05:20:32;;;;;;;9.65;8.82;;;19.70;63.10;;;;;;5019933;28;20055;-68
2023/06/11 05:23:03;;;;;;;10.65;9.55;;;19.90;62.50;;;;;;5016694;28;20037;-68
2023/06/11 05:25:29;;;;;;;9.48;8.57;;;20.00;61.60;;;;;;5020355;28;20085;-68
2023/06/11 05:28:01;;;;;;;11.07;9.15;;;20.20;61.30;;;;;;5019940;28;20045;-68
2023/06/11 05:30:29;;;;;;;10.32;9.32;;;20.40;60.70;;;;;;5020315;28;20041;-68
2023/06/11 05:32:56;;;;;;;10.10;9.02;;;20.50;60.20;;;;;;5017524;28;20078;-68
2023/06/11 05:35:25;;;;;;;10.35;8.48;;;20.80;60.00;;;;;;5023455;28;20061;-68
2023/06/11 05:37:51;;;;;;;9.32;8.43;;;20.90;59.60;;;;;;5018231;28;20097;-68
2023/06/11 05:40:17;;;;;;;9.23;8.32;;;21.10;59.10;;;;;;5019957;28;20045;-68
2023/06/11 05:42:43;;;;;;;11.70;9.02;;;21.30;58.60;;;;;;5023370;28;20060;-68
2023/06/11 05:45:09;;;;;;;9.35;8.40;;;21.40;57.90;;;;;;5022187;28;20037;-68
2023/06/11 05:47:34;;;;;;;9.07;8.18;;;21.50;58.10;;;;;;5024432;28;20048;-68
2023/06/11 05:50:01;;;;;;;9.30;8.40;;;21.60;57.70;;;;;;5001958;28;20052;-68
2023/06/11 05:52:27;;;;;;;9.95;8.38;;;21.80;57.70;;;;;;5020123;28;20076;-69
2023/06/11 05:54:53;;;;;;;8.95;8.10;;;22.00;57.20;;;;;;5022195;28;20065;-69
2023/06/11 05:57:25;;;;;;;9.30;8.40;;;22.20;57.10;;;;;;5006368;28;20176;-69
2023/06/11 05:59:51;;;;;;;10.10;8.60;;;22.40;56.40;;;;;;5020288;28;20113;-69
2023/06/11 06:02:18;;;;;;;8.48;7.65;;;22.60;55.90;;;;;;5019900;28;20128;-69
2023/06/11 06:04:49;;;;;;;10.20;8.00;;;22.70;55.70;;;;;;5020359;28;20048;-69
2023/06/11 06:07:16;;;;;;;9.25;8.35;;;22.80;54.50;;;;;;5025806;28;20041;-67
2023/06/11 06:09:42;;;;;;;9.82;8.18;;;22.90;54.60;;;;;;5019622;28;20112;-67
2023/06/11 06:12:08;;;;;;;8.55;7.75;;;23.00;54.20;;;;;;5020132;28;20041;-67
2023/06/11 06:14:34;;;;;;;8.70;7.82;;;23.10;53.80;;;;;;5017963;28;20127;-67
2023/06/11 06:17:00;;;;;;;9.15;8.05;;;23.20;54.00;;;;;;5020450;28;20053;-67
2023/06/11 06:19:26;;;;;;;8.15;7.43;;;23.30;53.60;;;;;;5013558;28;20096;-67
2023/06/11 06:21:52;;;;;;;9.30;8.20;;;23.30;53.70;;;;;;5022034;28;20363;-67
2023/06/11 06:24:17;;;;;;;8.82;7.93;;;23.30;53.20;;;;;;5018764;28;20056;-67
2023/06/11 06:26:43;;;;;;;8.73;7.93;;;23.40;53.10;;;;;;5018579;28;20112;-67
2023/06/11 06:29:13;;;;;;;8.85;7.93;;;23.50;52.90;;;;;;5022732;28;20038;-67
2023/06/11 06:31:40;;;;;;;9.07;8.18;;;23.60;52.60;;;;;;5021043;28;20187;-67
2023/06/11 06:34:07;;;;;;;9.10;8.20;;;23.60;52.40;;;;;;5022967;28;20060;-67
2023/06/11 06:36:33;;;;;;;9.63;7.60;;;23.70;52.40;;;;;;5017442;28;20058;-67
2023/06/11 06:39:00;;;;;;;9.77;8.82;;;23.70;52.40;;;;;;5017769;28;20439;-67
2023/06/11 06:41:26;;;;;;;9.13;8.20;;;23.80;52.30;;;;;;5018656;28;20060;-67
2023/06/11 06:43:52;;;;;;;9.40;8.50;;;23.80;52.10;;;;;;5018810;28;20096;-67
2023/06/11 06:46:17;;;;;;;9.52;7.50;;;24.10;52.20;;;;;;5014838;28;20042;-67
2023/06/11 06:48:43;;;;;;;10.52;8.35;;;23.90;52.20;;;;;;5021102;28;20147;-67
2023/06/11 06:51:09;;;;;;;9.57;8.10;;;24.00;51.90;;;;;;5020402;28;20041;-67
2023/06/11 06:53:34;;;;;;;8.02;7.25;;;23.90;52.00;;;;;;5024806;28;20045;-67
2023/06/11 06:56:00;;;;;;;9.52;8.40;;;24.00;51.90;;;;;;5023006;28;20074;-67
2023/06/11 06:58:29;;;;;;;9.05;7.82;;;24.10;51.90;;;;;;5014899;28;20041;-67
2023/06/11 07:00:55;;;;;;;9.50;8.52;;;24.10;51.60;;;;;;5021192;28;20081;-67
2023/06/11 07:03:21;;;;;;;8.20;7.40;;;24.10;51.40;;;;;;5005037;28;20069;-67
2023/06/11 07:05:47;;;;;;;10.48;8.40;;;24.20;51.50;;;;;;5021596;28;20037;-67
2023/06/11 07:08:13;;;;;;;9.40;8.45;;;24.40;51.30;;;;;;5019035;28;20129;-67
2023/06/11 07:10:47;;;;;;;9.75;7.28;;;24.40;51.40;;;;;;5020264;28;20505;-67
2023/06/11 07:13:13;;;;;;;8.10;7.32;;;24.40;51.80;;;;;;5018715;28;20096;-67
2023/06/11 07:15:39;;;;;;;7.55;6.78;;;24.60;51.60;;;;;;5019306;28;20057;-67
2023/06/11 07:18:05;;;;;;;8.32;7.53;;;24.70;50.90;;;;;;5016098;28;20632;-69
2023/06/11 07:20:30;;;;;;;9.10;8.13;;;24.90;50.20;;;;;;5037925;28;20065;-69
2023/06/11 07:22:59;;;;;;;7.70;7.00;;;25.00;50.30;;;;;;5021247;28;20038;-69
2023/06/11 07:25:28;;;;;;;7.57;6.82;;;25.10;49.80;;;;;;5020812;28;20061;-69
2023/06/11 07:28:03;;;;;;;8.00;7.22;;;25.20;50.40;;;;;;5016390;28;20493;-68
2023/06/11 07:30:30;;;;;;;7.13;6.43;;;25.30;50.10;;;;;;5021603;28;20400;-68
2023/06/11 07:32:56;;;;;;;8.60;7.07;;;25.40;49.80;;;;;;5025555;28;20077;-68
2023/06/11 07:35:22;;;;;;;7.75;6.38;;;25.50;50.10;;;;;;5020546;28;20050;-68
2023/06/11 07:37:48;;;;;;;7.93;6.95;;;25.60;49.80;;;;;;5023569;28;20053;-68
2023/06/11 07:40:15;;;;;;;7.78;6.75;;;25.80;49.30;;;;;;5018747;28;20092;-68
2023/06/11 07:42:44;;;;;;;8.35;7.32;;;25.90;49.20;;;;;;5013839;28;20038;-68
2023/06/11 07:45:11;;;;;;;7.93;7.10;;;26.00;48.50;;;;;;5024887;28;20069;-68
2023/06/11 07:47:36;;;;;;;8.65;6.63;;;26.10;47.60;;;;;;5019896;28;20038;-68
2023/06/11 07:50:06;;;;;;;11.05;7.10;;;26.20;47.90;;;;;;5028395;28;20504;-68
2023/06/11 07:52:32;;;;;;;7.53;6.82;;;26.20;47.40;;;;;;4994470;28;20646;-68
2023/06/11 07:54:58;;;;;;;6.95;6.25;;;26.30;47.20;;;;;;5026049;28;20041;-68
2023/06/11 07:57:23;;;;;;;7.95;7.15;;;26.40;47.20;;;;;;5033562;28;20041;-68
2023/06/11 07:59:49;;;;;;;7.32;6.65;;;26.50;46.90;;;;;;5021762;28;20047;-68
2023/06/11 08:02:15;;;;;;;8.73;6.75;;;26.60;46.50;;;;;;5024206;28;20087;-68
2023/06/11 08:04:41;;;;;;;7.28;6.43;;;26.60;46.60;;;;;;5019320;28;20034;-68
2023/06/11 08:07:07;;;;;;;7.43;6.72;;;26.70;46.30;;;;;;5014972;28;20501;-68
2023/06/11 08:09:35;;;;;;;7.82;7.00;;;26.80;46.40;;;;;;5022041;28;20053;-68
2023/06/11 08:12:04;;;;;;;7.57;6.75;;;26.90;46.30;;;;;;5031050;28;20100;-68
2023/06/11 08:14:32;;;;;;;7.53;6.82;;;27.00;46.10;;;;;;5023907;28;20033;-68
2023/06/11 08:16:58;;;;;;;9.55;7.63;;;27.00;45.70;;;;;;5025636;28;20049;-68
2023/06/11 08:19:24;;;;;;;7.38;6.68;;;27.10;45.60;;;;;;5045809;28;20107;-68
2023/06/11 08:21:50;;;;;;;8.20;7.30;;;27.10;45.80;;;;;;5014907;28;20107;-68
2023/06/11 08:24:18;;;;;;;7.60;6.72;;;27.20;45.00;;;;;;5019653;28;20389;-68
2023/06/11 08:26:44;;;;;;;8.57;6.75;;;27.30;45.20;;;;;;5015609;28;20080;-68
2023/06/11 08:29:10;;;;;;;7.60;6.57;;;27.30;45.50;;;;;;5024262;28;20084;-68
2023/06/11 08:31:36;;;;;;;7.88;6.70;;;27.40;45.50;;;;;;5016887;28;20065;-68
2023/06/11 08:34:01;;;;;;;8.52;7.22;;;27.50;45.50;;;;;;5021897;28;20041;-68
2023/06/11 08:36:27;;;;;;;8.25;6.32;;;27.60;44.80;;;;;;5023689;28;20053;-69
2023/06/11 08:38:53;;;;;;;7.55;6.47;;;27.70;45.20;;;;;;5020723;28;20083;-70
2023/06/11 08:41:19;;;;;;;6.75;6.15;;;27.80;45.20;;;;;;5024196;28;20052;-70
2023/06/11 08:43:45;;;;;;;7.38;6.43;;;27.90;45.00;;;;;;5017977;28;20047;-70
2023/06/11 08:46:17;;;;;;;7.45;6.18;;;28.00;44.90;;;;;;5025598;28;20077;-70
2023/06/11 08:48:44;;;;;;;7.93;6.15;;;28.10;44.90;;;;;;5031049;28;20038;-70
2023/06/11 08:51:12;;;;;;;7.35;6.28;;;28.20;45.20;;;;;;5030750;28;20089;-70
2023/06/11 08:53:39;;;;;;;7.57;6.85;;;28.30;45.00;;;;;;5016528;28;20485;-68
2023/06/11 08:56:08;;;;;;;8.98;6.90;;;28.30;44.30;;;;;;5014033;28;20137;-69
2023/06/11 08:58:35;;;;;;;8.50;6.40;;;28.30;43.50;;;;;;5022999;28;20045;-68
2023/06/11 09:01:13;;;;;;;7.03;6.32;;;28.30;44.10;;;;;;5025309;28;20081;-68
2023/06/11 09:03:39;;;;;;;7.97;6.25;;;28.40;43.90;;;;;;5021284;28;20489;-68
2023/06/11 09:06:05;;;;;;;6.93;5.82;;;28.50;43.90;;;;;;5014822;28;20069;-67
2023/06/11 09:08:31;;;;;;;6.70;6.10;;;28.70;43.10;;;;;;5021589;28;20045;-68
2023/06/11 09:10:57;;;;;;;8.38;6.30;;;28.80;43.40;;;;;;4997640;28;20433;-68
2023/06/11 09:13:27;;;;;;;7.95;6.75;;;28.90;43.20;;;;;;5017999;28;20128;-68
2023/06/11 09:15:57;;;;;;;6.47;5.80;;;28.90;43.40;;;;;;5014135;28;20124;-68
2023/06/11 09:18:24;;;;;;;7.90;5.88;;;29.00;43.20;;;;;;5017818;28;20041;-68
2023/06/11 09:21:00;;;;;;;6.32;5.38;;;29.10;42.90;;;;;;5030632;28;20041;-68
2023/06/11 09:23:34;;;;;;;8.35;5.88;;;29.20;42.60;;;;;;5030502;28;20112;-68
2023/06/11 09:26:00;;;;;;;7.68;6.18;;;29.20;41.70;;;;;;5010507;28;20449;-67
2023/06/11 09:28:29;;;;;;;6.60;5.97;;;29.20;41.50;;;;;;5009301;28;20048;-67
2023/06/11 09:30:57;;;;;;;8.70;6.50;;;29.30;42.40;;;;;;5008070;28;20054;-67
2023/06/11 09:33:23;;;;;;;6.47;5.88;;;29.40;42.90;;;;;;5009215;28;20432;-67
2023/06/11 09:35:49;;;;;;;8.27;6.22;;;29.40;41.90;;;;;;5009175;28;20057;-67
2023/06/11 09:38:17;;;;;;;7.03;5.75;;;29.40;41.60;;;;;;5008245;28;20091;-67
2023/06/11 09:40:47;;;;;;;7.75;5.72;;;29.40;41.70;;;;;;5024153;28;20055;-67
2023/06/11 09:43:14;;;;;;;6.70;5.68;;;29.50;41.50;;;;;;5007500;28;20457;-67
2023/06/11 09:45:44;;;;;;;6.60;5.78;;;29.60;41.50;;;;;;5024425;28;20041;-67
2023/06/11 09:48:11;;;;;;;6.25;5.22;;;29.80;40.90;;;;;;5024190;28;20053;-67
2023/06/11 09:50:38;;;;;;;6.45;5.70;;;29.80;40.90;;;;;;5008523;28;20050;-67
2023/06/11 09:53:05;;;;;;;6.55;5.40;;;29.90;40.60;;;;;;5007493;28;20042;-67
2023/06/11 09:55:34;;;;;;;6.65;5.97;;;29.90;40.60;;;;;;5007377;28;20053;-67
2023/06/11 09:58:03;;;;;;;6.70;6.05;;;30.10;40.70;;;;;;5008044;28;20497;-67
2023/06/11 10:00:30;;;;;;;6.65;5.80;;;30.20;41.00;;;;;;5008304;28;20127;-68
2023/06/11 10:02:58;;;;;;;7.18;6.00;;;30.20;40.80;;;;;;5007571;28;20731;-68
2023/06/11 10:05:24;;;;;;;7.43;6.00;;;30.10;40.70;;;;;;5007202;28;20084;-68
2023/06/11 10:08:03;;;;;;;5.90;5.22;;;30.10;40.30;;;;;;5007782;28;20092;-68
2023/06/11 10:10:35;;;;;;;7.88;5.55;;;30.10;40.60;;;;;;5007543;28;20387;-68
2023/06/11 10:13:01;;;;;;;5.90;5.38;;;30.10;39.90;;;;;;5008165;28;20096;-68
2023/06/11 10:15:31;;;;;;;6.18;5.30;;;30.10;40.50;;;;;;5023985;28;20045;-68
2023/06/11 10:17:56;;;;;;;7.90;5.75;;;30.20;40.60;;;;;;5025318;28;20119;-68
2023/06/11 10:20:31;;;;;;;6.30;5.00;;;30.30;40.00;;;;;;5008764;28;20493;-68
2023/06/11 10:23:11;;;;;;;7.18;5.43;;;30.30;39.60;;;;;;5008154;28;20527;-68
2023/06/11 10:25:39;;;;;;;5.78;5.28;;;30.30;39.20;;;;;;5008101;28;20041;-69
2023/06/11 10:28:06;;;;;;;6.63;5.55;;;30.30;39.50;;;;;;5008713;28;20180;-70
2023/06/11 10:30:32;;;;;;;7.30;5.47;;;30.30;39.80;;;;;;5007915;28;20478;-70
2023/06/11 10:32:58;;;;;;;7.57;5.72;;;30.30;39.40;;;;;;5008697;28;20045;-70
2023/06/11 10:35:28;;;;;;;5.72;4.90;;;30.30;39.40;;;;;;5009122;28;20050;-69
2023/06/11 10:38:12;;;;;;;6.00;5.43;;;30.30;39.70;;;;;;5007742;28;20096;-69
2023/06/11 10:40:39;;;;;;;5.93;5.32;;;30.40;39.30;;;;;;5010386;28;20041;-69
2023/06/11 10:43:21;;;;;;;5.82;5.22;;;30.40;39.30;;;;;;5007144;28;20939;-69
2023/06/11 10:46:03;;;;;;;6.40;5.32;;;30.50;39.40;;;;;;5010291;28;20095;-69
2023/06/11 10:48:30;;;;;;;5.30;4.60;;;30.50;38.50;;;;;;5009085;28;20050;-69
2023/06/11 10:51:03;;;;;;;8.07;5.22;;;30.40;38.70;;;;;;5007439;28;20041;-69
2023/06/11 10:53:41;;;;;;;5.53;4.50;;;30.40;38.40;;;;;;5009885;28;20127;-68
2023/06/11 10:56:08;;;;;;;5.30;4.60;;;30.40;37.90;;;;;;5024965;28;20041;-68
2023/06/11 10:58:34;;;;;;;5.72;4.90;;;30.40;37.50;;;;;;5006683;28;20092;-69
2023/06/11 11:01:00;;;;;;;5.68;5.07;;;30.50;37.40;;;;;;5007234;28;20037;-69
2023/06/11 11:03:30;;;;;;;5.68;5.07;;;30.50;37.50;;;;;;5007925;28;20513;-67
2023/06/11 11:05:57;;;;;;;5.13;4.63;;;30.50;38.30;;;;;;5006389;28;20038;-67
2023/06/11 11:08:23;;;;;;;6.13;5.53;;;30.60;37.40;;;;;;5008492;28;20159;-69
2023/06/11 11:10:56;;;;;;;5.45;4.90;;;30.60;37.60;;;;;;5011273;28;20409;-68
2023/06/11 11:13:23;;;;;;;5.65;5.10;;;30.70;37.40;;;;;;5021812;28;20042;-68
2023/06/11 11:15:50;;;;;;;6.18;4.57;;;30.70;37.50;;;;;;5017347;28;20042;-68
2023/06/11 11:18:16;;;;;;;6.38;4.65;;;30.70;36.90;;;;;;5030483;28;20037;-68
2023/06/11 11:20:45;;;;;;;4.43;4.03;;;30.80;35.90;;;;;;5025102;28;20041;-66
2023/06/11 11:23:11;;;;;;;4.47;4.07;;;30.80;35.60;;;;;;5034092;28;20087;-66
2023/06/11 11:25:38;;;;;;;4.70;4.13;;;30.90;36.20;;;;;;5024788;28;20052;-66
2023/06/11 11:28:04;;;;;;;5.50;5.00;;;31.00;35.50;;;;;;5018972;28;20054;-67
2023/06/11 11:30:29;;;;;;;5.18;4.68;;;31.10;35.30;;;;;;5031848;28;20042;-66
2023/06/11 11:32:59;;;;;;;7.10;4.82;;;31.10;35.10;;;;;;5017380;28;20045;-66
2023/06/11 11:35:26;;;;;;;6.63;4.47;;;31.10;35.20;;;;;;5017270;28;20461;-67
2023/06/11 11:37:54;;;;;;;5.88;4.25;;;31.10;35.10;;;;;;5015223;28;20409;-67
2023/06/11 11:40:23;;;;;;;7.07;4.30;;;31.00;35.40;;;;;;5027307;28;20116;-66
2023/06/11 11:42:51;;;;;;;5.78;5.00;;;31.10;35.00;;;;;;5029989;28;20049;-66
2023/06/11 11:45:18;;;;;;;4.90;4.40;;;31.10;34.00;;;;;;5020573;28;20065;-67
2023/06/11 11:47:50;;;;;;;5.28;4.65;;;31.20;33.80;;;;;;5029129;28;20049;-66
2023/06/11 11:50:27;;;;;;;4.95;4.45;;;31.20;33.80;;;;;;5030175;28;20080;-66
2023/06/11 11:53:13;;;;;;;6.03;4.60;;;31.20;34.00;;;;;;5015342;28;20049;-66
2023/06/11 11:55:44;;;;;;;5.68;4.10;;;31.20;33.30;;;;;;5012737;28;20108;-67
2023/06/11 11:58:16;;;;;;;6.32;4.55;;;31.20;34.00;;;;;;5019117;28;20060;-67
2023/06/11 12:00:57;;;;;;;6.38;4.85;;;31.20;33.80;;;;;;5023416;28;20532;-66
2023/06/11 12:03:23;;;;;;;7.03;4.53;;;31.20;33.80;;;;;;5020816;28;20045;-66
2023/06/11 12:06:07;;;;;;;6.35;4.72;;;31.20;33.50;;;;;;5013916;28;20512;-66
2023/06/11 12:08:33;;;;;;;;;;;31.30;33.40;;;;;;5015478;28;20053;-66
2023/06/11 12:11:00;;;;;;;4.22;3.83;;;31.20;33.30;;;;;;5016658;28;20065;-66
2023/06/11 12:13:26;;;;;;;7.72;4.78;;;31.30;33.20;;;;;;5015092;28;20374;-66
2023/06/11 12:15:52;;;;;;;5.95;3.85;;;31.40;32.60;;;;;;5026440;28;20047;-67
2023/06/11 12:18:18;;;;;;;5.30;4.45;;;31.40;32.40;;;;;;5017528;28;20388;-66
2023/06/11 12:20:44;;;;;;;7.85;5.05;;;31.60;32.20;;;;;;5021235;28;20035;-67
2023/06/11 12:23:10;;;;;;;5.20;4.35;;;31.60;32.80;;;;;;5017978;28;20095;-66
2023/06/11 12:25:36;;;;;;;5.43;4.57;;;31.60;32.60;;;;;;5023644;28;20045;-67
2023/06/11 12:28:03;;;;;;;6.65;5.00;;;31.50;32.40;;;;;;5021686;28;20046;-67
2023/06/11 12:30:31;;;;;;;5.38;4.72;;;31.50;32.70;;;;;;5018974;28;21233;-66
2023/06/11 12:32:57;;;;;;;7.53;5.20;;;31.60;33.00;;;;;;5020760;28;20499;-66
2023/06/11 12:35:23;;;;;;;5.40;4.90;;;31.60;32.80;;;;;;5024598;28;20081;-66
2023/06/11 12:37:50;;;;;;;5.85;4.35;;;31.70;32.60;;;;;;5028403;28;20095;-66
2023/06/11 12:40:16;;;;;;;6.47;5.05;;;31.70;32.10;;;;;;5018759;28;20050;-66
2023/06/11 12:42:43;;;;;;;5.63;4.53;;;31.70;32.40;;;;;;5025824;28;20116;-66
2023/06/11 12:45:09;;;;;;;5.20;4.30;;;31.70;31.80;;;;;;5020987;28;20105;-67
2023/06/11 12:47:36;;;;;;;6.00;4.20;;;31.60;32.10;;;;;;5016558;28;20171;-66